Terminal Aerodrome Forecast
Issued by NWS

Home | Current Version | Previous Version | Graphics & Text | Print | Product List | Glossary On
Versions: 1 2 3 4 5 6 7 8 9 10 11 12 13 14 15 16 17 18 19
000
FTUS43 KOAX 190606 CCB
TAFCDR
TAF COR
KCDR 190606Z 1906/2006 35014G20KT P6SM -RA SCT025 BKN035 OVC050
     FM190800 31018G25KT P6SM BKN020 OVC100
     FM191100 34019G26KT P6SM BKN250
     FM200100 33006KT P6SM SCT100=

USA.gov is the U.S. government's official web portal to all federal, state and local government web resources and services.